sensor_id;sensor_type;location;lat;lon;timestamp;temperature;humidity
78876;DHT22;68253;52.506;5.486;2023-07-31T00:00:55;16.40;76.50
78876;DHT22;68253;52.506;5.486;2023-07-31T00:03:21;16.40;76.50
78876;DHT22;68253;52.506;5.486;2023-07-31T00:05:47;16.40;76.50
78876;DHT22;68253;52.506;5.486;2023-07-31T00:08:13;16.30;76.60
78876;DHT22;68253;52.506;5.486;2023-07-31T00:10:39;16.30;76.60
78876;DHT22;68253;52.506;5.486;2023-07-31T00:13:05;16.30;76.60
78876;DHT22;68253;52.506;5.486;2023-07-31T00:15:31;16.30;76.70
78876;DHT22;68253;52.506;5.486;2023-07-31T00:17:57;16.30;76.80
78876;DHT22;68253;52.506;5.486;2023-07-31T00:20:24;16.40;76.80
78876;DHT22;68253;52.506;5.486;2023-07-31T00:22:50;16.40;76.80
78876;DHT22;68253;52.506;5.486;2023-07-31T00:25:16;16.40;76.90
78876;DHT22;68253;52.506;5.486;2023-07-31T00:27:42;16.40;76.90
78876;DHT22;68253;52.506;5.486;2023-07-31T00:30:11;16.40;77.00
78876;DHT22;68253;52.506;5.486;2023-07-31T00:32:37;16.40;77.00
78876;DHT22;68253;52.506;5.486;2023-07-31T00:35:03;16.40;77.10
78876;DHT22;68253;52.506;5.486;2023-07-31T00:37:31;16.40;77.20
78876;DHT22;68253;52.506;5.486;2023-07-31T00:39:57;16.40;77.20
78876;DHT22;68253;52.506;5.486;2023-07-31T00:42:24;16.40;77.40
78876;DHT22;68253;52.506;5.486;2023-07-31T00:44:50;16.40;77.40
78876;DHT22;68253;52.506;5.486;2023-07-31T00:47:16;16.50;77.50
78876;DHT22;68253;52.506;5.486;2023-07-31T00:49:42;16.50;77.60
78876;DHT22;68253;52.506;5.486;2023-07-31T00:52:09;16.50;77.70
78876;DHT22;68253;52.506;5.486;2023-07-31T00:54:36;16.50;78.00
78876;DHT22;68253;52.506;5.486;2023-07-31T00:57:02;16.50;78.10
78876;DHT22;68253;52.506;5.486;2023-07-31T00:59:29;16.60;78.10
78876;DHT22;68253;52.506;5.486;2023-07-31T01:01:55;16.70;78.20
78876;DHT22;68253;52.506;5.486;2023-07-31T01:04:21;16.70;78.50
78876;DHT22;68253;52.506;5.486;2023-07-31T01:07:31;16.80;78.70
78876;DHT22;68253;52.506;5.486;2023-07-31T01:10:08;16.90;78.70
78876;DHT22;68253;52.506;5.486;2023-07-31T01:12:38;17.00;78.60
78876;DHT22;68253;52.506;5.486;2023-07-31T01:15:09;17.00;78.40
78876;DHT22;68253;52.506;5.486;2023-07-31T01:17:39;17.10;78.10
78876;DHT22;68253;52.506;5.486;2023-07-31T01:20:26;17.20;78.10
78876;DHT22;68253;52.506;5.486;2023-07-31T01:31:12;17.20;78.00
78876;DHT22;68253;52.506;5.486;2023-07-31T01:33:40;17.30;78.10
78876;DHT22;68253;52.506;5.486;2023-07-31T01:36:07;17.30;78.10
78876;DHT22;68253;52.506;5.486;2023-07-31T01:38:33;17.30;78.10
78876;DHT22;68253;52.506;5.486;2023-07-31T01:40:59;17.30;78.10
78876;DHT22;68253;52.506;5.486;2023-07-31T01:43:25;17.30;78.10
78876;DHT22;68253;52.506;5.486;2023-07-31T01:45:51;17.30;78.20
78876;DHT22;68253;52.506;5.486;2023-07-31T01:48:18;17.30;78.20
78876;DHT22;68253;52.506;5.486;2023-07-31T01:50:44;17.30;78.30
78876;DHT22;68253;52.506;5.486;2023-07-31T01:53:10;17.30;78.20
78876;DHT22;68253;52.506;5.486;2023-07-31T01:55:38;17.30;78.10
78876;DHT22;68253;52.506;5.486;2023-07-31T01:58:04;17.30;78.10
78876;DHT22;68253;52.506;5.486;2023-07-31T02:00:30;17.30;78.20
78876;DHT22;68253;52.506;5.486;2023-07-31T02:02:56;17.40;78.10
78876;DHT22;68253;52.506;5.486;2023-07-31T02:05:23;17.40;78.10
78876;DHT22;68253;52.506;5.486;2023-07-31T02:07:49;17.40;78.20
78876;DHT22;68253;52.506;5.486;2023-07-31T02:10:15;17.30;78.40
78876;DHT22;68253;52.506;5.486;2023-07-31T02:12:42;17.30;78.40
78876;DHT22;68253;52.506;5.486;2023-07-31T02:15:08;17.30;78.50
78876;DHT22;68253;52.506;5.486;2023-07-31T02:17:35;17.30;78.50
78876;DHT22;68253;52.506;5.486;2023-07-31T02:20:01;17.30;78.40
78876;DHT22;68253;52.506;5.486;2023-07-31T02:22:28;17.20;78.30
78876;DHT22;68253;52.506;5.486;2023-07-31T02:24:56;17.20;78.00
78876;DHT22;68253;52.506;5.486;2023-07-31T02:27:22;17.20;77.80
78876;DHT22;68253;52.506;5.486;2023-07-31T02:29:53;17.10;77.50
78876;DHT22;68253;52.506;5.486;2023-07-31T02:32:20;17.00;77.60
78876;DHT22;68253;52.506;5.486;2023-07-31T02:34:46;17.00;77.80
78876;DHT22;68253;52.506;5.486;2023-07-31T02:37:13;17.00;78.10
78876;DHT22;68253;52.506;5.486;2023-07-31T02:39:39;17.00;78.30
78876;DHT22;68253;52.506;5.486;2023-07-31T02:42:05;17.00;78.40
78876;DHT22;68253;52.506;5.486;2023-07-31T02:44:31;17.00;78.50
78876;DHT22;68253;52.506;5.486;2023-07-31T02:46:57;17.00;78.40
78876;DHT22;68253;52.506;5.486;2023-07-31T02:49:23;17.00;78.30
78876;DHT22;68253;52.506;5.486;2023-07-31T02:51:50;17.00;78.40
78876;DHT22;68253;52.506;5.486;2023-07-31T02:54:16;17.00;78.30
78876;DHT22;68253;52.506;5.486;2023-07-31T02:56:42;17.00;78.30
78876;DHT22;68253;52.506;5.486;2023-07-31T02:59:08;17.00;78.30
78876;DHT22;68253;52.506;5.486;2023-07-31T03:01:34;17.00;78.40
78876;DHT22;68253;52.506;5.486;2023-07-31T03:04:00;17.00;78.30
78876;DHT22;68253;52.506;5.486;2023-07-31T03:06:26;17.00;78.30
78876;DHT22;68253;52.506;5.486;2023-07-31T03:08:53;17.10;78.30
78876;DHT22;68253;52.506;5.486;2023-07-31T03:11:19;17.10;78.20
78876;DHT22;68253;52.506;5.486;2023-07-31T03:13:45;17.10;78.20
78876;DHT22;68253;52.506;5.486;2023-07-31T03:16:11;17.10;78.10
78876;DHT22;68253;52.506;5.486;2023-07-31T03:18:37;17.10;78.10
78876;DHT22;68253;52.506;5.486;2023-07-31T03:21:04;17.10;78.20
78876;DHT22;68253;52.506;5.486;2023-07-31T03:23:30;17.00;78.10
78876;DHT22;68253;52.506;5.486;2023-07-31T03:26:01;17.00;78.10
78876;DHT22;68253;52.506;5.486;2023-07-31T03:28:29;17.00;78.20
78876;DHT22;68253;52.506;5.486;2023-07-31T03:30:56;17.00;78.20
78876;DHT22;68253;52.506;5.486;2023-07-31T03:33:22;17.00;78.30
78876;DHT22;68253;52.506;5.486;2023-07-31T03:35:49;17.00;78.40
78876;DHT22;68253;52.506;5.486;2023-07-31T03:38:15;17.00;78.60
78876;DHT22;68253;52.506;5.486;2023-07-31T03:40:41;17.00;78.70
78876;DHT22;68253;52.506;5.486;2023-07-31T03:43:07;17.00;78.70
78876;DHT22;68253;52.506;5.486;2023-07-31T03:45:34;17.00;78.70
78876;DHT22;68253;52.506;5.486;2023-07-31T03:48:00;17.00;78.70
78876;DHT22;68253;52.506;5.486;2023-07-31T03:50:26;17.00;78.70
78876;DHT22;68253;52.506;5.486;2023-07-31T03:52:52;17.00;78.60
78876;DHT22;68253;52.506;5.486;2023-07-31T03:55:19;17.00;78.50
78876;DHT22;68253;52.506;5.486;2023-07-31T03:57:45;17.00;78.40
78876;DHT22;68253;52.506;5.486;2023-07-31T04:00:11;16.90;78.40
78876;DHT22;68253;52.506;5.486;2023-07-31T04:02:41;16.90;78.40
78876;DHT22;68253;52.506;5.486;2023-07-31T04:05:07;17.00;78.40
78876;DHT22;68253;52.506;5.486;2023-07-31T04:07:33;16.90;78.30
78876;DHT22;68253;52.506;5.486;2023-07-31T04:10:00;17.00;78.30
78876;DHT22;68253;52.506;5.486;2023-07-31T04:12:26;17.00;78.20
78876;DHT22;68253;52.506;5.486;2023-07-31T04:14:52;17.00;78.20
78876;DHT22;68253;52.506;5.486;2023-07-31T04:17:18;17.00;78.20
78876;DHT22;68253;52.506;5.486;2023-07-31T04:19:44;17.00;78.20
78876;DHT22;68253;52.506;5.486;2023-07-31T04:22:10;17.00;78.20
78876;DHT22;68253;52.506;5.486;2023-07-31T04:24:37;17.00;78.20
78876;DHT22;68253;52.506;5.486;2023-07-31T04:27:03;17.00;78.20
78876;DHT22;68253;52.506;5.486;2023-07-31T04:29:29;17.00;78.20
78876;DHT22;68253;52.506;5.486;2023-07-31T04:31:55;17.00;78.20
78876;DHT22;68253;52.506;5.486;2023-07-31T04:34:21;17.00;78.00
78876;DHT22;68253;52.506;5.486;2023-07-31T04:36:47;17.00;78.00
78876;DHT22;68253;52.506;5.486;2023-07-31T04:39:13;17.00;78.00
78876;DHT22;68253;52.506;5.486;2023-07-31T04:41:40;17.00;78.00
78876;DHT22;68253;52.506;5.486;2023-07-31T04:44:06;17.00;77.90
78876;DHT22;68253;52.506;5.486;2023-07-31T04:46:32;17.00;77.80
78876;DHT22;68253;52.506;5.486;2023-07-31T04:48:58;17.00;77.90
78876;DHT22;68253;52.506;5.486;2023-07-31T04:51:24;17.00;77.90
78876;DHT22;68253;52.506;5.486;2023-07-31T04:53:51;17.00;77.90
78876;DHT22;68253;52.506;5.486;2023-07-31T04:56:17;17.00;77.80
78876;DHT22;68253;52.506;5.486;2023-07-31T04:58:43;17.00;77.90
78876;DHT22;68253;52.506;5.486;2023-07-31T05:01:09;17.00;77.90
78876;DHT22;68253;52.506;5.486;2023-07-31T05:03:35;17.00;77.90
78876;DHT22;68253;52.506;5.486;2023-07-31T05:06:01;17.00;77.90
78876;DHT22;68253;52.506;5.486;2023-07-31T05:08:27;17.00;77.90
78876;DHT22;68253;52.506;5.486;2023-07-31T05:10:53;17.00;77.70
78876;DHT22;68253;52.506;5.486;2023-07-31T05:13:20;17.00;77.80
78876;DHT22;68253;52.506;5.486;2023-07-31T05:15:46;17.10;77.80
78876;DHT22;68253;52.506;5.486;2023-07-31T05:18:12;17.10;77.60
78876;DHT22;68253;52.506;5.486;2023-07-31T05:20:38;17.10;77.40
78876;DHT22;68253;52.506;5.486;2023-07-31T05:23:04;17.10;77.50
78876;DHT22;68253;52.506;5.486;2023-07-31T05:25:30;17.00;77.60
78876;DHT22;68253;52.506;5.486;2023-07-31T05:27:56;17.00;77.50
78876;DHT22;68253;52.506;5.486;2023-07-31T05:30:22;17.00;77.60
78876;DHT22;68253;52.506;5.486;2023-07-31T05:32:48;17.00;77.80
78876;DHT22;68253;52.506;5.486;2023-07-31T05:35:15;17.00;78.00
78876;DHT22;68253;52.506;5.486;2023-07-31T05:37:41;17.00;78.00
78876;DHT22;68253;52.506;5.486;2023-07-31T05:40:07;17.00;78.10
78876;DHT22;68253;52.506;5.486;2023-07-31T05:42:33;16.90;78.20
78876;DHT22;68253;52.506;5.486;2023-07-31T05:45:00;16.90;78.30
78876;DHT22;68253;52.506;5.486;2023-07-31T05:47:26;16.90;78.40
78876;DHT22;68253;52.506;5.486;2023-07-31T05:49:52;16.90;78.40
78876;DHT22;68253;52.506;5.486;2023-07-31T05:52:19;16.90;78.30
78876;DHT22;68253;52.506;5.486;2023-07-31T05:54:45;16.90;78.30
78876;DHT22;68253;52.506;5.486;2023-07-31T05:57:12;16.90;78.20
78876;DHT22;68253;52.506;5.486;2023-07-31T05:59:38;16.90;78.20
78876;DHT22;68253;52.506;5.486;2023-07-31T06:02:04;16.90;78.20
78876;DHT22;68253;52.506;5.486;2023-07-31T06:04:30;16.90;78.30
78876;DHT22;68253;52.506;5.486;2023-07-31T06:06:56;16.90;78.30
78876;DHT22;68253;52.506;5.486;2023-07-31T06:09:23;16.90;78.20
78876;DHT22;68253;52.506;5.486;2023-07-31T06:11:49;16.90;78.30
78876;DHT22;68253;52.506;5.486;2023-07-31T06:14:15;16.90;78.20
78876;DHT22;68253;52.506;5.486;2023-07-31T06:16:41;16.90;78.10
78876;DHT22;68253;52.506;5.486;2023-07-31T06:19:07;16.90;78.00
78876;DHT22;68253;52.506;5.486;2023-07-31T06:21:33;16.90;78.00
78876;DHT22;68253;52.506;5.486;2023-07-31T06:23:59;16.90;78.00
78876;DHT22;68253;52.506;5.486;2023-07-31T06:26:26;16.90;77.90
78876;DHT22;68253;52.506;5.486;2023-07-31T06:28:52;16.80;77.80
78876;DHT22;68253;52.506;5.486;2023-07-31T06:31:18;16.80;77.90
78876;DHT22;68253;52.506;5.486;2023-07-31T06:33:52;16.80;78.00
78876;DHT22;68253;52.506;5.486;2023-07-31T06:36:18;16.70;78.10
78876;DHT22;68253;52.506;5.486;2023-07-31T06:38:44;16.70;78.20
78876;DHT22;68253;52.506;5.486;2023-07-31T06:41:11;16.70;78.20
78876;DHT22;68253;52.506;5.486;2023-07-31T06:43:37;16.60;78.30
78876;DHT22;68253;52.506;5.486;2023-07-31T06:46:07;16.60;78.40
78876;DHT22;68253;52.506;5.486;2023-07-31T06:48:33;16.60;78.70
78876;DHT22;68253;52.506;5.486;2023-07-31T06:51:01;16.60;78.70
78876;DHT22;68253;52.506;5.486;2023-07-31T06:53:27;16.70;78.70
78876;DHT22;68253;52.506;5.486;2023-07-31T06:55:53;16.70;78.70
78876;DHT22;68253;52.506;5.486;2023-07-31T06:58:20;16.80;78.70
78876;DHT22;68253;52.506;5.486;2023-07-31T07:00:47;16.80;78.70
78876;DHT22;68253;52.506;5.486;2023-07-31T07:03:16;16.80;78.50
78876;DHT22;68253;52.506;5.486;2023-07-31T07:05:42;16.80;78.50
78876;DHT22;68253;52.506;5.486;2023-07-31T07:08:08;16.80;78.60
78876;DHT22;68253;52.506;5.486;2023-07-31T07:10:34;16.90;78.60
78876;DHT22;68253;52.506;5.486;2023-07-31T07:13:00;16.90;78.50
78876;DHT22;68253;52.506;5.486;2023-07-31T07:15:26;16.90;78.60
78876;DHT22;68253;52.506;5.486;2023-07-31T07:17:52;17.00;78.50
78876;DHT22;68253;52.506;5.486;2023-07-31T07:20:18;17.00;78.60
78876;DHT22;68253;52.506;5.486;2023-07-31T07:22:46;17.00;78.60
78876;DHT22;68253;52.506;5.486;2023-07-31T07:25:12;17.00;78.70
78876;DHT22;68253;52.506;5.486;2023-07-31T07:27:38;17.00;78.70
78876;DHT22;68253;52.506;5.486;2023-07-31T07:30:04;17.20;78.60
78876;DHT22;68253;52.506;5.486;2023-07-31T07:32:31;17.20;78.50
78876;DHT22;68253;52.506;5.486;2023-07-31T07:34:57;17.20;78.60
78876;DHT22;68253;52.506;5.486;2023-07-31T07:37:23;17.20;78.50
78876;DHT22;68253;52.506;5.486;2023-07-31T07:39:49;17.40;78.40
78876;DHT22;68253;52.506;5.486;2023-07-31T07:42:15;17.40;78.30
78876;DHT22;68253;52.506;5.486;2023-07-31T07:44:42;17.40;78.30
78876;DHT22;68253;52.506;5.486;2023-07-31T07:47:08;17.40;78.20
78876;DHT22;68253;52.506;5.486;2023-07-31T07:49:34;17.50;78.30
78876;DHT22;68253;52.506;5.486;2023-07-31T07:52:01;17.50;78.40
78876;DHT22;68253;52.506;5.486;2023-07-31T07:54:28;17.50;78.50
78876;DHT22;68253;52.506;5.486;2023-07-31T07:56:54;17.50;78.50
78876;DHT22;68253;52.506;5.486;2023-07-31T07:59:20;17.50;78.40
78876;DHT22;68253;52.506;5.486;2023-07-31T08:01:46;17.50;78.30
78876;DHT22;68253;52.506;5.486;2023-07-31T08:04:12;17.50;78.50
78876;DHT22;68253;52.506;5.486;2023-07-31T08:06:38;17.50;78.60
78876;DHT22;68253;52.506;5.486;2023-07-31T08:09:05;17.50;78.70
78876;DHT22;68253;52.506;5.486;2023-07-31T08:11:32;17.50;78.70
78876;DHT22;68253;52.506;5.486;2023-07-31T08:13:59;17.50;78.70
78876;DHT22;68253;52.506;5.486;2023-07-31T08:16:25;17.50;78.70
78876;DHT22;68253;52.506;5.486;2023-07-31T08:18:51;17.60;78.80
78876;DHT22;68253;52.506;5.486;2023-07-31T08:21:17;17.60;78.70
78876;DHT22;68253;52.506;5.486;2023-07-31T08:23:43;17.70;78.50
78876;DHT22;68253;52.506;5.486;2023-07-31T08:26:16;17.60;78.40
78876;DHT22;68253;52.506;5.486;2023-07-31T08:28:43;17.60;78.70
78876;DHT22;68253;52.506;5.486;2023-07-31T08:31:09;17.60;78.80
78876;DHT22;68253;52.506;5.486;2023-07-31T08:33:37;17.80;78.90
78876;DHT22;68253;52.506;5.486;2023-07-31T08:36:03;17.80;78.70
78876;DHT22;68253;52.506;5.486;2023-07-31T08:38:29;17.80;78.70
78876;DHT22;68253;52.506;5.486;2023-07-31T08:40:58;17.90;78.80
78876;DHT22;68253;52.506;5.486;2023-07-31T08:43:28;18.00;78.70
78876;DHT22;68253;52.506;5.486;2023-07-31T08:45:54;18.00;78.70
78876;DHT22;68253;52.506;5.486;2023-07-31T08:48:22;18.10;78.60
78876;DHT22;68253;52.506;5.486;2023-07-31T08:50:49;18.10;78.60
78876;DHT22;68253;52.506;5.486;2023-07-31T08:53:15;18.10;78.60
78876;DHT22;68253;52.506;5.486;2023-07-31T08:55:43;18.20;78.60
78876;DHT22;68253;52.506;5.486;2023-07-31T08:58:10;18.20;78.40
78876;DHT22;68253;52.506;5.486;2023-07-31T09:00:38;18.20;78.60
78876;DHT22;68253;52.506;5.486;2023-07-31T09:03:15;18.20;78.40
78876;DHT22;68253;52.506;5.486;2023-07-31T09:05:46;18.30;78.60
78876;DHT22;68253;52.506;5.486;2023-07-31T09:08:13;18.30;78.60
78876;DHT22;68253;52.506;5.486;2023-07-31T09:10:44;18.30;78.40
78876;DHT22;68253;52.506;5.486;2023-07-31T09:13:12;18.40;78.20
78876;DHT22;68253;52.506;5.486;2023-07-31T09:15:40;18.40;78.60
78876;DHT22;68253;52.506;5.486;2023-07-31T09:18:08;18.40;78.60
78876;DHT22;68253;52.506;5.486;2023-07-31T09:20:35;18.50;78.50
78876;DHT22;68253;52.506;5.486;2023-07-31T09:23:08;18.50;78.60
78876;DHT22;68253;52.506;5.486;2023-07-31T09:25:35;18.50;78.60
78876;DHT22;68253;52.506;5.486;2023-07-31T09:28:07;18.50;78.60
78876;DHT22;68253;52.506;5.486;2023-07-31T09:31:03;18.50;78.70
78876;DHT22;68253;52.506;5.486;2023-07-31T09:33:29;18.50;78.80
78876;DHT22;68253;52.506;5.486;2023-07-31T09:35:58;18.50;78.80
78876;DHT22;68253;52.506;5.486;2023-07-31T09:38:26;18.50;78.80
78876;DHT22;68253;52.506;5.486;2023-07-31T09:40:52;18.60;78.90
78876;DHT22;68253;52.506;5.486;2023-07-31T09:43:19;18.60;78.70
78876;DHT22;68253;52.506;5.486;2023-07-31T09:45:46;18.60;78.80
78876;DHT22;68253;52.506;5.486;2023-07-31T09:48:17;18.60;78.90
78876;DHT22;68253;52.506;5.486;2023-07-31T09:50:45;18.60;79.00
78876;DHT22;68253;52.506;5.486;2023-07-31T09:53:12;18.70;78.90
78876;DHT22;68253;52.506;5.486;2023-07-31T09:55:39;18.70;79.00
78876;DHT22;68253;52.506;5.486;2023-07-31T09:58:07;18.70;79.00
78876;DHT22;68253;52.506;5.486;2023-07-31T10:00:34;18.80;78.70
78876;DHT22;68253;52.506;5.486;2023-07-31T10:03:07;18.80;78.70
78876;DHT22;68253;52.506;5.486;2023-07-31T10:05:40;18.70;79.00
78876;DHT22;68253;52.506;5.486;2023-07-31T10:08:09;18.80;78.80
78876;DHT22;68253;52.506;5.486;2023-07-31T10:10:36;18.80;78.90
78876;DHT22;68253;52.506;5.486;2023-07-31T10:13:04;18.80;79.00
78876;DHT22;68253;52.506;5.486;2023-07-31T10:15:31;18.70;79.00
78876;DHT22;68253;52.506;5.486;2023-07-31T10:17:58;18.70;79.20
78876;DHT22;68253;52.506;5.486;2023-07-31T10:20:26;18.60;79.20
78876;DHT22;68253;52.506;5.486;2023-07-31T10:22:54;18.70;79.30
78876;DHT22;68253;52.506;5.486;2023-07-31T10:25:22;18.70;79.20
78876;DHT22;68253;52.506;5.486;2023-07-31T10:27:48;18.70;78.80
78876;DHT22;68253;52.506;5.486;2023-07-31T10:30:17;18.80;78.90
78876;DHT22;68253;52.506;5.486;2023-07-31T10:32:45;18.90;79.10
78876;DHT22;68253;52.506;5.486;2023-07-31T10:35:12;19.00;79.40
78876;DHT22;68253;52.506;5.486;2023-07-31T10:37:42;19.40;78.80
78876;DHT22;68253;52.506;5.486;2023-07-31T10:40:12;19.50;77.80
78876;DHT22;68253;52.506;5.486;2023-07-31T10:45:32;19.70;77.10
78876;DHT22;68253;52.506;5.486;2023-07-31T10:50:31;19.70;76.80
78876;DHT22;68253;52.506;5.486;2023-07-31T10:52:59;19.70;76.90
78876;DHT22;68253;52.506;5.486;2023-07-31T10:55:31;19.50;77.20
78876;DHT22;68253;52.506;5.486;2023-07-31T10:58:06;19.50;77.60
78876;DHT22;68253;52.506;5.486;2023-07-31T11:00:33;19.40;77.90
78876;DHT22;68253;52.506;5.486;2023-07-31T11:03:05;19.40;77.90
78876;DHT22;68253;52.506;5.486;2023-07-31T11:08:32;19.30;77.80
78876;DHT22;68253;52.506;5.486;2023-07-31T11:13:32;19.30;78.20
78876;DHT22;68253;52.506;5.486;2023-07-31T11:15:59;19.30;78.30
78876;DHT22;68253;52.506;5.486;2023-07-31T11:18:31;19.30;78.20
78876;DHT22;68253;52.506;5.486;2023-07-31T11:20:58;19.30;77.90
78876;DHT22;68253;52.506;5.486;2023-07-31T11:23:24;19.40;77.40
78876;DHT22;68253;52.506;5.486;2023-07-31T11:25:50;19.40;77.40
78876;DHT22;68253;52.506;5.486;2023-07-31T11:28:18;19.50;77.50
78876;DHT22;68253;52.506;5.486;2023-07-31T11:30:45;19.60;77.10
78876;DHT22;68253;52.506;5.486;2023-07-31T11:33:13;19.70;76.90
78876;DHT22;68253;52.506;5.486;2023-07-31T11:35:47;19.70;76.40
78876;DHT22;68253;52.506;5.486;2023-07-31T11:38:28;19.80;76.10
78876;DHT22;68253;52.506;5.486;2023-07-31T11:40:57;19.80;76.10
78876;DHT22;68253;52.506;5.486;2023-07-31T11:43:23;19.90;76.10
78876;DHT22;68253;52.506;5.486;2023-07-31T11:45:52;20.00;76.40
78876;DHT22;68253;52.506;5.486;2023-07-31T11:48:22;20.10;75.90
78876;DHT22;68253;52.506;5.486;2023-07-31T11:50:57;20.30;75.70
78876;DHT22;68253;52.506;5.486;2023-07-31T11:53:39;20.40;75.00
78876;DHT22;68253;52.506;5.486;2023-07-31T11:56:08;20.30;75.10
78876;DHT22;68253;52.506;5.486;2023-07-31T11:58:38;20.20;75.40
78876;DHT22;68253;52.506;5.486;2023-07-31T12:01:05;20.10;75.40
78876;DHT22;68253;52.506;5.486;2023-07-31T12:03:32;20.00;75.70
78876;DHT22;68253;52.506;5.486;2023-07-31T12:05:59;19.80;76.00
78876;DHT22;68253;52.506;5.486;2023-07-31T12:08:26;19.70;76.20
78876;DHT22;68253;52.506;5.486;2023-07-31T12:10:53;19.70;76.70
78876;DHT22;68253;52.506;5.486;2023-07-31T12:13:25;19.70;76.90
78876;DHT22;68253;52.506;5.486;2023-07-31T12:15:57;19.80;76.70
78876;DHT22;68253;52.506;5.486;2023-07-31T12:18:26;19.90;76.50
78876;DHT22;68253;52.506;5.486;2023-07-31T12:20:56;19.80;76.10
78876;DHT22;68253;52.506;5.486;2023-07-31T12:23:27;19.70;76.00
78876;DHT22;68253;52.506;5.486;2023-07-31T12:28:30;19.70;75.70
78876;DHT22;68253;52.506;5.486;2023-07-31T12:31:00;19.70;76.00
78876;DHT22;68253;52.506;5.486;2023-07-31T12:33:37;19.70;76.00
78876;DHT22;68253;52.506;5.486;2023-07-31T12:38:36;19.70;76.30
78876;DHT22;68253;52.506;5.486;2023-07-31T12:41:02;19.70;75.90
78876;DHT22;68253;52.506;5.486;2023-07-31T12:43:28;19.70;75.80
78876;DHT22;68253;52.506;5.486;2023-07-31T12:45:54;19.90;75.90
78876;DHT22;68253;52.506;5.486;2023-07-31T12:48:22;19.90;75.50
78876;DHT22;68253;52.506;5.486;2023-07-31T12:50:48;19.90;75.10
78876;DHT22;68253;52.506;5.486;2023-07-31T12:53:15;20.00;75.00
78876;DHT22;68253;52.506;5.486;2023-07-31T12:55:42;19.90;75.10
78876;DHT22;68253;52.506;5.486;2023-07-31T12:58:08;20.00;74.90
78876;DHT22;68253;52.506;5.486;2023-07-31T13:00:34;20.10;74.70
78876;DHT22;68253;52.506;5.486;2023-07-31T13:03:01;20.20;74.20
78876;DHT22;68253;52.506;5.486;2023-07-31T13:05:27;20.30;74.10
78876;DHT22;68253;52.506;5.486;2023-07-31T13:07:54;20.50;74.10
78876;DHT22;68253;52.506;5.486;2023-07-31T13:10:21;20.60;73.40
78876;DHT22;68253;52.506;5.486;2023-07-31T13:12:47;20.60;72.60
78876;DHT22;68253;52.506;5.486;2023-07-31T13:15:14;20.50;72.90
78876;DHT22;68253;52.506;5.486;2023-07-31T13:17:40;20.50;72.70
78876;DHT22;68253;52.506;5.486;2023-07-31T13:20:07;20.40;72.70
78876;DHT22;68253;52.506;5.486;2023-07-31T13:22:33;20.30;73.00
78876;DHT22;68253;52.506;5.486;2023-07-31T13:24:59;20.30;72.90
78876;DHT22;68253;52.506;5.486;2023-07-31T13:27:26;20.30;73.30
78876;DHT22;68253;52.506;5.486;2023-07-31T13:29:52;20.40;73.20
78876;DHT22;68253;52.506;5.486;2023-07-31T13:32:19;20.50;73.40
78876;DHT22;68253;52.506;5.486;2023-07-31T13:34:46;20.50;73.40
78876;DHT22;68253;52.506;5.486;2023-07-31T13:37:13;20.50;73.60
78876;DHT22;68253;52.506;5.486;2023-07-31T13:39:40;20.60;73.70
78876;DHT22;68253;52.506;5.486;2023-07-31T13:42:07;20.70;73.20
78876;DHT22;68253;52.506;5.486;2023-07-31T13:44:37;20.80;72.50
78876;DHT22;68253;52.506;5.486;2023-07-31T13:47:04;20.80;72.60
78876;DHT22;68253;52.506;5.486;2023-07-31T13:49:30;20.90;72.20
78876;DHT22;68253;52.506;5.486;2023-07-31T13:51:57;21.00;72.30
78876;DHT22;68253;52.506;5.486;2023-07-31T13:54:23;21.00;72.10
78876;DHT22;68253;52.506;5.486;2023-07-31T13:56:50;20.90;72.40
78876;DHT22;68253;52.506;5.486;2023-07-31T13:59:16;20.90;71.60
78876;DHT22;68253;52.506;5.486;2023-07-31T14:01:45;20.80;71.90
78876;DHT22;68253;52.506;5.486;2023-07-31T14:04:12;20.70;72.20
78876;DHT22;68253;52.506;5.486;2023-07-31T14:06:38;20.70;72.30
78876;DHT22;68253;52.506;5.486;2023-07-31T14:09:05;20.70;72.60
78876;DHT22;68253;52.506;5.486;2023-07-31T14:11:31;20.70;72.10
78876;DHT22;68253;52.506;5.486;2023-07-31T14:13:57;20.70;72.40
78876;DHT22;68253;52.506;5.486;2023-07-31T14:16:24;20.70;72.10
78876;DHT22;68253;52.506;5.486;2023-07-31T14:18:50;20.70;72.10
78876;DHT22;68253;52.506;5.486;2023-07-31T14:21:16;20.60;72.10
78876;DHT22;68253;52.506;5.486;2023-07-31T14:23:42;20.60;72.10
78876;DHT22;68253;52.506;5.486;2023-07-31T14:26:08;20.50;72.30
78876;DHT22;68253;52.506;5.486;2023-07-31T14:28:34;20.50;72.50
78876;DHT22;68253;52.506;5.486;2023-07-31T14:31:00;20.50;73.10
78876;DHT22;68253;52.506;5.486;2023-07-31T14:33:26;20.30;73.50
78876;DHT22;68253;52.506;5.486;2023-07-31T14:35:53;20.30;73.90
78876;DHT22;68253;52.506;5.486;2023-07-31T14:38:20;20.10;74.60
78876;DHT22;68253;52.506;5.486;2023-07-31T14:40:46;20.00;75.00
78876;DHT22;68253;52.506;5.486;2023-07-31T14:43:12;19.90;75.50
78876;DHT22;68253;52.506;5.486;2023-07-31T14:45:38;19.70;75.70
78876;DHT22;68253;52.506;5.486;2023-07-31T14:48:04;19.60;76.10
78876;DHT22;68253;52.506;5.486;2023-07-31T14:50:31;19.50;76.30
78876;DHT22;68253;52.506;5.486;2023-07-31T14:52:57;19.50;76.20
78876;DHT22;68253;52.506;5.486;2023-07-31T14:55:23;19.50;76.00
78876;DHT22;68253;52.506;5.486;2023-07-31T14:57:49;19.50;76.20
78876;DHT22;68253;52.506;5.486;2023-07-31T15:00:15;19.50;76.20
78876;DHT22;68253;52.506;5.486;2023-07-31T15:02:41;19.50;76.10
78876;DHT22;68253;52.506;5.486;2023-07-31T15:05:08;19.40;76.30
78876;DHT22;68253;52.506;5.486;2023-07-31T15:07:34;19.40;76.50
78876;DHT22;68253;52.506;5.486;2023-07-31T15:10:01;19.40;76.50
78876;DHT22;68253;52.506;5.486;2023-07-31T15:12:28;19.40;76.50
78876;DHT22;68253;52.506;5.486;2023-07-31T15:14:54;19.40;76.50
78876;DHT22;68253;52.506;5.486;2023-07-31T15:17:20;19.50;76.30
78876;DHT22;68253;52.506;5.486;2023-07-31T15:19:47;19.50;76.00
78876;DHT22;68253;52.506;5.486;2023-07-31T15:22:13;19.50;75.50
78876;DHT22;68253;52.506;5.486;2023-07-31T15:24:39;19.50;75.60
78876;DHT22;68253;52.506;5.486;2023-07-31T15:27:06;19.50;75.80
78876;DHT22;68253;52.506;5.486;2023-07-31T15:29:32;19.50;75.70
78876;DHT22;68253;52.506;5.486;2023-07-31T15:32:00;19.50;75.70
78876;DHT22;68253;52.506;5.486;2023-07-31T15:34:26;19.50;75.90
78876;DHT22;68253;52.506;5.486;2023-07-31T15:36:52;19.50;75.90
78876;DHT22;68253;52.506;5.486;2023-07-31T15:39:19;19.50;76.00
78876;DHT22;68253;52.506;5.486;2023-07-31T15:41:45;19.50;75.70
78876;DHT22;68253;52.506;5.486;2023-07-31T15:44:11;19.50;75.50
78876;DHT22;68253;52.506;5.486;2023-07-31T15:46:37;19.50;75.70
78876;DHT22;68253;52.506;5.486;2023-07-31T15:49:03;19.50;75.80
78876;DHT22;68253;52.506;5.486;2023-07-31T15:51:29;19.50;75.70
78876;DHT22;68253;52.506;5.486;2023-07-31T15:53:56;19.50;75.50